sensor_id;sensor_type;location;lat;lon;timestamp;pressure;altitude;pressure_sealevel;temperature;humidity
10518;BME280;5307;42.548;22.968;2023-06-22T00:02:01;94285.75;;;17.62;100.00
10518;BME280;5307;42.548;22.968;2023-06-22T00:04:28;94282.03;;;17.65;100.00
10518;BME280;5307;42.548;22.968;2023-06-22T00:06:55;94281.41;;;17.55;100.00
10518;BME280;5307;42.548;22.968;2023-06-22T00:09:22;94277.81;;;17.49;100.00
10518;BME280;5307;42.548;22.968;2023-06-22T00:11:49;94279.59;;;17.32;100.00
10518;BME280;5307;42.548;22.968;2023-06-22T00:14:15;94281.28;;;17.29;100.00
10518;BME280;5307;42.548;22.968;2023-06-22T00:16:43;94283.66;;;17.36;100.00
10518;BME280;5307;42.548;22.968;2023-06-22T00:19:14;94278.91;;;17.37;100.00
10518;BME280;5307;42.548;22.968;2023-06-22T00:21:41;94280.94;;;17.21;100.00
10518;BME280;5307;42.548;22.968;2023-06-22T00:24:08;94279.53;;;17.11;100.00
10518;BME280;5307;42.548;22.968;2023-06-22T00:26:35;94271.25;;;17.11;100.00
10518;BME280;5307;42.548;22.968;2023-06-22T00:29:01;94276.34;;;16.83;100.00
10518;BME280;5307;42.548;22.968;2023-06-22T00:31:28;94279.63;;;17.02;100.00
10518;BME280;5307;42.548;22.968;2023-06-22T00:33:56;94276.13;;;17.02;100.00
10518;BME280;5307;42.548;22.968;2023-06-22T00:36:23;94258.84;;;16.72;100.00
10518;BME280;5307;42.548;22.968;2023-06-22T00:46:33;94268.34;;;16.85;100.00
10518;BME280;5307;42.548;22.968;2023-06-22T00:49:02;94269.03;;;16.80;100.00
10518;BME280;5307;42.548;22.968;2023-06-22T00:51:31;94261.78;;;16.83;100.00
10518;BME280;5307;42.548;22.968;2023-06-22T00:53:58;94253.16;;;16.75;100.00
10518;BME280;5307;42.548;22.968;2023-06-22T00:56:25;94263.13;;;16.73;100.00
10518;BME280;5307;42.548;22.968;2023-06-22T00:58:55;94269.59;;;16.70;100.00
10518;BME280;5307;42.548;22.968;2023-06-22T01:01:23;94255.50;;;16.53;100.00
10518;BME280;5307;42.548;22.968;2023-06-22T01:03:50;94275.28;;;16.66;100.00
10518;BME280;5307;42.548;22.968;2023-06-22T01:06:24;94275.41;;;16.72;100.00
10518;BME280;5307;42.548;22.968;2023-06-22T01:08:58;94275.22;;;16.75;100.00
10518;BME280;5307;42.548;22.968;2023-06-22T01:11:31;94283.75;;;16.62;100.00
10518;BME280;5307;42.548;22.968;2023-06-22T01:14:04;94278.75;;;16.76;100.00
10518;BME280;5307;42.548;22.968;2023-06-22T01:16:35;94272.53;;;16.66;100.00
10518;BME280;5307;42.548;22.968;2023-06-22T01:19:09;94272.41;;;16.31;100.00
10518;BME280;5307;42.548;22.968;2023-06-22T01:21:43;94266.25;;;16.36;100.00
10518;BME280;5307;42.548;22.968;2023-06-22T01:24:15;94279.66;;;16.43;100.00
10518;BME280;5307;42.548;22.968;2023-06-22T01:26:54;94286.13;;;16.55;100.00
10518;BME280;5307;42.548;22.968;2023-06-22T01:29:26;94291.34;;;16.23;100.00
10518;BME280;5307;42.548;22.968;2023-06-22T01:31:54;94288.13;;;16.54;100.00
10518;BME280;5307;42.548;22.968;2023-06-22T01:34:23;94294.19;;;16.29;100.00
10518;BME280;5307;42.548;22.968;2023-06-22T01:36:51;94292.59;;;16.52;100.00
10518;BME280;5307;42.548;22.968;2023-06-22T01:39:19;94295.06;;;16.35;100.00
10518;BME280;5307;42.548;22.968;2023-06-22T01:41:48;94294.47;;;16.31;100.00
10518;BME280;5307;42.548;22.968;2023-06-22T01:44:16;94293.34;;;16.52;100.00
10518;BME280;5307;42.548;22.968;2023-06-22T01:46:46;94283.66;;;16.42;100.00
10518;BME280;5307;42.548;22.968;2023-06-22T01:49:15;94306.25;;;16.46;100.00
10518;BME280;5307;42.548;22.968;2023-06-22T01:51:42;94308.38;;;16.37;100.00
10518;BME280;5307;42.548;22.968;2023-06-22T01:54:09;94301.91;;;16.40;100.00
10518;BME280;5307;42.548;22.968;2023-06-22T01:56:35;94298.09;;;16.37;100.00
10518;BME280;5307;42.548;22.968;2023-06-22T01:59:14;94300.09;;;16.51;100.00
10518;BME280;5307;42.548;22.968;2023-06-22T02:01:47;94288.69;;;16.44;100.00
10518;BME280;5307;42.548;22.968;2023-06-22T02:04:20;94299.91;;;16.40;100.00
10518;BME280;5307;42.548;22.968;2023-06-22T02:06:49;94301.69;;;16.43;100.00
10518;BME280;5307;42.548;22.968;2023-06-22T02:09:20;94310.44;;;16.42;100.00
10518;BME280;5307;42.548;22.968;2023-06-22T02:11:49;94312.63;;;16.38;100.00
10518;BME280;5307;42.548;22.968;2023-06-22T02:14:19;94314.34;;;16.35;100.00
10518;BME280;5307;42.548;22.968;2023-06-22T02:16:47;94300.84;;;16.37;100.00
10518;BME280;5307;42.548;22.968;2023-06-22T02:19:14;94298.66;;;16.41;100.00
10518;BME280;5307;42.548;22.968;2023-06-22T02:21:43;94304.38;;;16.38;100.00
10518;BME280;5307;42.548;22.968;2023-06-22T02:24:10;94301.50;;;16.47;100.00
10518;BME280;5307;42.548;22.968;2023-06-22T02:26:37;94300.28;;;16.33;100.00
10518;BME280;5307;42.548;22.968;2023-06-22T02:29:05;94301.91;;;16.40;100.00
10518;BME280;5307;42.548;22.968;2023-06-22T02:31:32;94296.94;;;16.29;100.00
10518;BME280;5307;42.548;22.968;2023-06-22T02:34:00;94310.06;;;16.34;100.00
10518;BME280;5307;42.548;22.968;2023-06-22T02:36:27;94298.28;;;16.33;100.00
10518;BME280;5307;42.548;22.968;2023-06-22T02:38:56;94293.63;;;16.25;100.00
10518;BME280;5307;42.548;22.968;2023-06-22T02:41:24;94298.84;;;16.23;100.00
10518;BME280;5307;42.548;22.968;2023-06-22T02:43:51;94288.38;;;16.27;100.00
10518;BME280;5307;42.548;22.968;2023-06-22T02:46:18;94291.75;;;15.92;100.00
10518;BME280;5307;42.548;22.968;2023-06-22T02:48:45;94291.19;;;16.03;100.00
10518;BME280;5307;42.548;22.968;2023-06-22T02:51:13;94291.38;;;15.99;100.00
10518;BME280;5307;42.548;22.968;2023-06-22T02:53:40;94298.41;;;16.00;100.00
10518;BME280;5307;42.548;22.968;2023-06-22T02:56:09;94301.38;;;16.12;100.00
10518;BME280;5307;42.548;22.968;2023-06-22T02:58:38;94298.16;;;16.13;100.00
10518;BME280;5307;42.548;22.968;2023-06-22T03:01:05;94291.81;;;16.22;100.00
10518;BME280;5307;42.548;22.968;2023-06-22T03:03:32;94305.75;;;16.18;100.00
10518;BME280;5307;42.548;22.968;2023-06-22T03:05:58;94305.94;;;16.15;100.00
10518;BME280;5307;42.548;22.968;2023-06-22T03:08:28;94309.09;;;16.22;100.00
10518;BME280;5307;42.548;22.968;2023-06-22T03:10:55;94320.47;;;16.15;100.00
10518;BME280;5307;42.548;22.968;2023-06-22T03:13:22;94314.34;;;16.20;100.00
10518;BME280;5307;42.548;22.968;2023-06-22T03:15:49;94322.69;;;16.26;100.00
10518;BME280;5307;42.548;22.968;2023-06-22T03:18:16;94321.53;;;16.18;100.00
10518;BME280;5307;42.548;22.968;2023-06-22T03:20:43;94320.41;;;16.24;100.00
10518;BME280;5307;42.548;22.968;2023-06-22T03:23:10;94315.22;;;16.41;100.00
10518;BME280;5307;42.548;22.968;2023-06-22T03:25:38;94323.97;;;16.40;100.00
10518;BME280;5307;42.548;22.968;2023-06-22T03:28:04;94330.44;;;16.51;100.00
10518;BME280;5307;42.548;22.968;2023-06-22T03:30:31;94337.41;;;16.61;100.00
10518;BME280;5307;42.548;22.968;2023-06-22T03:32:58;94342.00;;;16.41;100.00
10518;BME280;5307;42.548;22.968;2023-06-22T03:35:25;94342.97;;;16.52;100.00
10518;BME280;5307;42.548;22.968;2023-06-22T03:37:52;94343.47;;;16.51;100.00
10518;BME280;5307;42.548;22.968;2023-06-22T03:40:19;94353.03;;;16.41;100.00
10518;BME280;5307;42.548;22.968;2023-06-22T03:42:47;94355.94;;;16.61;100.00
10518;BME280;5307;42.548;22.968;2023-06-22T03:45:14;94355.25;;;16.51;100.00
10518;BME280;5307;42.548;22.968;2023-06-22T03:47:41;94359.09;;;16.69;100.00
10518;BME280;5307;42.548;22.968;2023-06-22T03:50:08;94365.84;;;16.68;100.00
10518;BME280;5307;42.548;22.968;2023-06-22T03:52:35;94353.66;;;16.74;100.00
10518;BME280;5307;42.548;22.968;2023-06-22T03:55:02;94348.78;;;16.54;100.00
10518;BME280;5307;42.548;22.968;2023-06-22T03:57:29;94360.50;;;16.64;100.00
10518;BME280;5307;42.548;22.968;2023-06-22T03:59:58;94350.41;;;16.61;100.00
10518;BME280;5307;42.548;22.968;2023-06-22T04:02:25;94350.22;;;16.65;100.00
10518;BME280;5307;42.548;22.968;2023-06-22T04:04:52;94345.88;;;16.73;100.00
10518;BME280;5307;42.548;22.968;2023-06-22T04:07:19;94334.66;;;16.91;100.00
10518;BME280;5307;42.548;22.968;2023-06-22T04:09:45;94340.72;;;16.51;100.00
10518;BME280;5307;42.548;22.968;2023-06-22T04:12:12;94334.63;;;16.61;100.00
10518;BME280;5307;42.548;22.968;2023-06-22T04:14:39;94337.91;;;16.89;100.00
10518;BME280;5307;42.548;22.968;2023-06-22T04:17:07;94336.56;;;16.85;100.00
10518;BME280;5307;42.548;22.968;2023-06-22T04:19:34;94333.97;;;16.96;100.00
10518;BME280;5307;42.548;22.968;2023-06-22T04:22:01;94333.44;;;16.92;100.00
10518;BME280;5307;42.548;22.968;2023-06-22T04:24:28;94344.63;;;17.18;100.00
10518;BME280;5307;42.548;22.968;2023-06-22T04:26:54;94328.81;;;17.33;100.00
10518;BME280;5307;42.548;22.968;2023-06-22T04:29:21;94338.97;;;17.27;100.00
10518;BME280;5307;42.548;22.968;2023-06-22T04:31:54;94328.03;;;17.33;100.00
10518;BME280;5307;42.548;22.968;2023-06-22T04:34:24;94329.94;;;17.27;100.00
10518;BME280;5307;42.548;22.968;2023-06-22T04:36:53;94338.41;;;17.38;100.00
10518;BME280;5307;42.548;22.968;2023-06-22T04:39:20;94339.13;;;17.53;100.00
10518;BME280;5307;42.548;22.968;2023-06-22T04:41:47;94346.13;;;18.04;100.00
10518;BME280;5307;42.548;22.968;2023-06-22T04:44:15;94335.16;;;18.35;99.53
10518;BME280;5307;42.548;22.968;2023-06-22T04:46:49;94340.91;;;18.32;98.10
10518;BME280;5307;42.548;22.968;2023-06-22T04:49:20;94342.31;;;18.22;97.98
10518;BME280;5307;42.548;22.968;2023-06-22T04:51:49;94347.25;;;18.38;96.93
10518;BME280;5307;42.548;22.968;2023-06-22T04:54:17;94352.38;;;18.45;95.83
10518;BME280;5307;42.548;22.968;2023-06-22T04:56:43;94355.41;;;19.25;93.67
10518;BME280;5307;42.548;22.968;2023-06-22T04:59:12;94357.47;;;18.73;94.85
10518;BME280;5307;42.548;22.968;2023-06-22T05:01:38;94348.84;;;18.91;94.66
10518;BME280;5307;42.548;22.968;2023-06-22T05:04:05;94350.47;;;18.57;95.00
10518;BME280;5307;42.548;22.968;2023-06-22T05:06:33;94353.53;;;18.85;95.85
10518;BME280;5307;42.548;22.968;2023-06-22T05:09:01;94356.03;;;19.40;92.97
10518;BME280;5307;42.548;22.968;2023-06-22T05:11:30;94345.06;;;19.20;91.38
10518;BME280;5307;42.548;22.968;2023-06-22T05:13:57;94354.72;;;19.30;89.99
10518;BME280;5307;42.548;22.968;2023-06-22T05:16:24;94350.97;;;19.70;88.42
10518;BME280;5307;42.548;22.968;2023-06-22T05:18:52;94346.28;;;19.50;87.82
10518;BME280;5307;42.548;22.968;2023-06-22T05:21:22;94341.91;;;20.24;88.22
10518;BME280;5307;42.548;22.968;2023-06-22T05:23:49;94340.34;;;20.06;84.91
10518;BME280;5307;42.548;22.968;2023-06-22T05:26:18;94344.81;;;19.92;85.85
10518;BME280;5307;42.548;22.968;2023-06-22T05:28:45;94346.38;;;19.99;84.15
10518;BME280;5307;42.548;22.968;2023-06-22T05:31:13;94336.06;;;20.10;84.81
10518;BME280;5307;42.548;22.968;2023-06-22T05:33:40;94337.03;;;20.61;83.51
10518;BME280;5307;42.548;22.968;2023-06-22T05:36:07;94346.72;;;20.23;84.50
10518;BME280;5307;42.548;22.968;2023-06-22T05:38:34;94348.97;;;21.01;81.88
10518;BME280;5307;42.548;22.968;2023-06-22T05:41:01;94358.28;;;20.87;81.93
10518;BME280;5307;42.548;22.968;2023-06-22T05:43:29;94365.84;;;20.92;81.73
10518;BME280;5307;42.548;22.968;2023-06-22T05:45:56;94362.41;;;21.42;80.89
10518;BME280;5307;42.548;22.968;2023-06-22T05:48:23;94372.47;;;21.78;77.40
10518;BME280;5307;42.548;22.968;2023-06-22T05:50:50;94362.06;;;21.90;76.83
10518;BME280;5307;42.548;22.968;2023-06-22T05:53:17;94352.66;;;22.21;75.06
10518;BME280;5307;42.548;22.968;2023-06-22T05:55:44;94317.66;;;21.45;77.25
10518;BME280;5307;42.548;22.968;2023-06-22T05:58:11;94356.88;;;22.44;75.55
10518;BME280;5307;42.548;22.968;2023-06-22T06:00:40;94355.16;;;22.88;74.83
10518;BME280;5307;42.548;22.968;2023-06-22T06:03:07;94353.28;;;22.49;74.13
10518;BME280;5307;42.548;22.968;2023-06-22T06:05:34;94341.19;;;22.41;73.64
10518;BME280;5307;42.548;22.968;2023-06-22T06:08:02;94346.66;;;21.89;73.82
10518;BME280;5307;42.548;22.968;2023-06-22T06:10:30;94350.94;;;22.70;72.07
10518;BME280;5307;42.548;22.968;2023-06-22T06:16:47;94344.19;;;22.55;71.41
10518;BME280;5307;42.548;22.968;2023-06-22T06:19:14;94336.44;;;22.77;71.52
10518;BME280;5307;42.548;22.968;2023-06-22T06:21:41;94334.38;;;22.89;71.73
10518;BME280;5307;42.548;22.968;2023-06-22T06:24:08;94343.88;;;22.64;72.21
10518;BME280;5307;42.548;22.968;2023-06-22T06:26:35;94335.28;;;22.62;72.56
10518;BME280;5307;42.548;22.968;2023-06-22T06:29:02;94337.19;;;22.31;74.64
10518;BME280;5307;42.548;22.968;2023-06-22T06:31:28;94341.56;;;22.04;75.22
10518;BME280;5307;42.548;22.968;2023-06-22T06:33:57;94338.34;;;22.58;73.96
10518;BME280;5307;42.548;22.968;2023-06-22T06:36:23;94329.78;;;22.97;73.81
10518;BME280;5307;42.548;22.968;2023-06-22T06:38:50;94329.13;;;23.16;71.01
10518;BME280;5307;42.548;22.968;2023-06-22T06:41:17;94332.22;;;23.12;70.76
10518;BME280;5307;42.548;22.968;2023-06-22T06:43:44;94329.53;;;22.95;71.32
10518;BME280;5307;42.548;22.968;2023-06-22T06:46:11;94332.91;;;22.83;72.62
10518;BME280;5307;42.548;22.968;2023-06-22T06:48:38;94334.19;;;23.77;71.12
10518;BME280;5307;42.548;22.968;2023-06-22T06:51:06;94332.22;;;23.96;70.75
10518;BME280;5307;42.548;22.968;2023-06-22T06:53:54;94331.25;;;23.34;73.35
10518;BME280;5307;42.548;22.968;2023-06-22T06:56:21;94334.34;;;22.95;74.95
10518;BME280;5307;42.548;22.968;2023-06-22T06:58:49;94330.94;;;23.07;77.82
10518;BME280;5307;42.548;22.968;2023-06-22T07:01:20;94330.84;;;23.24;77.04
10518;BME280;5307;42.548;22.968;2023-06-22T07:03:47;94342.91;;;23.38;76.20
10518;BME280;5307;42.548;22.968;2023-06-22T07:06:15;94332.59;;;22.92;77.57
10518;BME280;5307;42.548;22.968;2023-06-22T07:08:42;94328.75;;;23.00;79.52
10518;BME280;5307;42.548;22.968;2023-06-22T07:11:08;94327.53;;;23.26;79.40
10518;BME280;5307;42.548;22.968;2023-06-22T07:13:35;94317.88;;;22.97;79.37
10518;BME280;5307;42.548;22.968;2023-06-22T07:16:02;94323.00;;;23.23;80.54
10518;BME280;5307;42.548;22.968;2023-06-22T07:18:29;94321.06;;;23.42;78.19
10518;BME280;5307;42.548;22.968;2023-06-22T07:20:56;94326.50;;;23.29;78.73
10518;BME280;5307;42.548;22.968;2023-06-22T07:23:24;94325.44;;;23.32;78.92
10518;BME280;5307;42.548;22.968;2023-06-22T07:25:51;94327.13;;;24.01;75.82
10518;BME280;5307;42.548;22.968;2023-06-22T07:28:18;94327.38;;;24.83;75.53
10518;BME280;5307;42.548;22.968;2023-06-22T07:30:46;94326.09;;;24.84;72.57
10518;BME280;5307;42.548;22.968;2023-06-22T07:33:12;94330.06;;;25.27;72.20
10518;BME280;5307;42.548;22.968;2023-06-22T07:35:39;94327.16;;;24.81;73.44
10518;BME280;5307;42.548;22.968;2023-06-22T07:38:06;94328.13;;;25.03;70.82
10518;BME280;5307;42.548;22.968;2023-06-22T07:40:35;94335.38;;;24.93;72.10
10518;BME280;5307;42.548;22.968;2023-06-22T07:43:03;94333.25;;;25.17;71.74
10518;BME280;5307;42.548;22.968;2023-06-22T07:45:30;94331.44;;;25.52;71.49
10518;BME280;5307;42.548;22.968;2023-06-22T07:47:58;94337.44;;;25.88;68.70
10518;BME280;5307;42.548;22.968;2023-06-22T07:50:25;94329.16;;;25.19;69.31
10518;BME280;5307;42.548;22.968;2023-06-22T07:52:52;94328.09;;;25.54;69.29
10518;BME280;5307;42.548;22.968;2023-06-22T07:55:19;94323.91;;;25.60;68.97
10518;BME280;5307;42.548;22.968;2023-06-22T07:57:49;94323.06;;;25.65;69.38
10518;BME280;5307;42.548;22.968;2023-06-22T08:00:17;94310.13;;;26.08;70.11
10518;BME280;5307;42.548;22.968;2023-06-22T08:02:45;94308.78;;;26.75;67.59
10518;BME280;5307;42.548;22.968;2023-06-22T08:05:13;94316.50;;;26.82;65.03
10518;BME280;5307;42.548;22.968;2023-06-22T08:07:40;94300.44;;;26.22;65.65
10518;BME280;5307;42.548;22.968;2023-06-22T08:10:10;94295.88;;;26.32;65.75
10518;BME280;5307;42.548;22.968;2023-06-22T08:12:37;94300.63;;;26.50;64.44
10518;BME280;5307;42.548;22.968;2023-06-22T08:15:07;94294.44;;;27.12;64.38
10518;BME280;5307;42.548;22.968;2023-06-22T08:17:36;94295.94;;;27.55;62.93
10518;BME280;5307;42.548;22.968;2023-06-22T08:20:03;94284.59;;;27.61;60.58
10518;BME280;5307;42.548;22.968;2023-06-22T08:22:34;94284.31;;;27.30;57.12
10518;BME280;5307;42.548;22.968;2023-06-22T08:25:02;94288.59;;;27.94;56.92
10518;BME280;5307;42.548;22.968;2023-06-22T08:27:29;94285.06;;;27.72;57.62
10518;BME280;5307;42.548;22.968;2023-06-22T08:29:57;94274.75;;;27.96;56.55
10518;BME280;5307;42.548;22.968;2023-06-22T08:32:26;94281.31;;;27.98;53.91
10518;BME280;5307;42.548;22.968;2023-06-22T08:34:53;94281.84;;;27.97;55.89
10518;BME280;5307;42.548;22.968;2023-06-22T08:37:20;94280.41;;;27.54;56.16
10518;BME280;5307;42.548;22.968;2023-06-22T08:39:56;94281.16;;;28.04;55.20
10518;BME280;5307;42.548;22.968;2023-06-22T08:42:22;94269.81;;;28.46;54.63
10518;BME280;5307;42.548;22.968;2023-06-22T08:44:51;94267.13;;;28.40;52.95
10518;BME280;5307;42.548;22.968;2023-06-22T08:47:19;94268.41;;;28.75;52.16
10518;BME280;5307;42.548;22.968;2023-06-22T08:49:48;94272.31;;;28.28;50.69
10518;BME280;5307;42.548;22.968;2023-06-22T08:52:15;94273.63;;;28.63;51.64
10518;BME280;5307;42.548;22.968;2023-06-22T08:54:41;94275.25;;;29.10;52.86
10518;BME280;5307;42.548;22.968;2023-06-22T08:57:08;94282.06;;;29.45;54.80
10518;BME280;5307;42.548;22.968;2023-06-22T08:59:35;94270.00;;;29.07;49.10
10518;BME280;5307;42.548;22.968;2023-06-22T09:02:02;94269.88;;;29.35;48.95
10518;BME280;5307;42.548;22.968;2023-06-22T09:04:29;94263.84;;;29.23;50.71
10518;BME280;5307;42.548;22.968;2023-06-22T09:07:01;94262.09;;;28.97;46.39
10518;BME280;5307;42.548;22.968;2023-06-22T09:09:28;94265.72;;;29.21;47.46
10518;BME280;5307;42.548;22.968;2023-06-22T09:11:54;94264.28;;;28.76;46.37
10518;BME280;5307;42.548;22.968;2023-06-22T09:14:21;94252.97;;;29.20;47.23
10518;BME280;5307;42.548;22.968;2023-06-22T09:16:48;94254.34;;;28.83;45.49
10518;BME280;5307;42.548;22.968;2023-06-22T09:19:15;94265.19;;;29.45;46.22
10518;BME280;5307;42.548;22.968;2023-06-22T09:21:41;94263.84;;;29.39;47.37
10518;BME280;5307;42.548;22.968;2023-06-22T09:29:59;94261.06;;;29.31;47.44
10518;BME280;5307;42.548;22.968;2023-06-22T09:32:26;94267.97;;;29.22;49.67
10518;BME280;5307;42.548;22.968;2023-06-22T09:34:52;94272.09;;;29.14;47.48
10518;BME280;5307;42.548;22.968;2023-06-22T09:37:19;94259.38;;;29.89;49.72
10518;BME280;5307;42.548;22.968;2023-06-22T09:39:47;94258.44;;;29.79;49.30
10518;BME280;5307;42.548;22.968;2023-06-22T09:42:14;94262.03;;;29.49;44.47
10518;BME280;5307;42.548;22.968;2023-06-22T09:44:41;94266.88;;;29.94;46.61
10518;BME280;5307;42.548;22.968;2023-06-22T09:47:08;94263.28;;;30.01;43.91
10518;BME280;5307;42.548;22.968;2023-06-22T09:49:35;94258.25;;;29.54;46.07
10518;BME280;5307;42.548;22.968;2023-06-22T09:52:02;94254.13;;;29.78;46.12
10518;BME280;5307;42.548;22.968;2023-06-22T09:54:29;94256.72;;;29.99;45.76
10518;BME280;5307;42.548;22.968;2023-06-22T09:56:57;94255.63;;;29.87;47.23
10518;BME280;5307;42.548;22.968;2023-06-22T09:59:24;94252.44;;;29.60;45.61
10518;BME280;5307;42.548;22.968;2023-06-22T10:01:50;94254.84;;;30.01;47.58
10518;BME280;5307;42.548;22.968;2023-06-22T10:04:17;94253.53;;;30.18;47.43
10518;BME280;5307;42.548;22.968;2023-06-22T10:06:44;94262.16;;;30.04;47.25
10518;BME280;5307;42.548;22.968;2023-06-22T10:09:11;94252.81;;;29.79;47.06
10518;BME280;5307;42.548;22.968;2023-06-22T10:11:38;94252.81;;;29.48;45.42
10518;BME280;5307;42.548;22.968;2023-06-22T10:14:06;94251.69;;;29.74;46.71
10518;BME280;5307;42.548;22.968;2023-06-22T10:16:33;94254.84;;;29.25;46.76
10518;BME280;5307;42.548;22.968;2023-06-22T10:19:01;94243.03;;;29.26;46.61
10518;BME280;5307;42.548;22.968;2023-06-22T10:21:28;94240.94;;;29.12;47.33
10518;BME280;5307;42.548;22.968;2023-06-22T10:23:54;94239.84;;;29.83;50.41
10518;BME280;5307;42.548;22.968;2023-06-22T10:26:22;94237.78;;;29.38;49.37
10518;BME280;5307;42.548;22.968;2023-06-22T10:28:49;94240.03;;;29.78;48.91
10518;BME280;5307;42.548;22.968;2023-06-22T10:31:17;94251.25;;;29.09;44.97
10518;BME280;5307;42.548;22.968;2023-06-22T10:33:44;94230.81;;;28.93;47.23
10518;BME280;5307;42.548;22.968;2023-06-22T10:36:11;94227.63;;;29.05;47.83
10518;BME280;5307;42.548;22.968;2023-06-22T10:38:38;94231.81;;;29.49;46.24
10518;BME280;5307;42.548;22.968;2023-06-22T10:41:05;94219.97;;;29.43;45.45
10518;BME280;5307;42.548;22.968;2023-06-22T10:43:32;94220.91;;;29.31;45.87
10518;BME280;5307;42.548;22.968;2023-06-22T10:45:59;94226.00;;;29.47;47.55
10518;BME280;5307;42.548;22.968;2023-06-22T10:48:27;94218.97;;;29.94;46.89
10518;BME280;5307;42.548;22.968;2023-06-22T10:50:54;94222.22;;;29.68;47.14
10518;BME280;5307;42.548;22.968;2023-06-22T10:53:21;94209.28;;;29.65;48.56
10518;BME280;5307;42.548;22.968;2023-06-22T10:55:48;94220.28;;;30.01;49.58
10518;BME280;5307;42.548;22.968;2023-06-22T10:58:15;94228.06;;;29.62;47.06
10518;BME280;5307;42.548;22.968;2023-06-22T11:00:42;94219.03;;;29.64;48.00
10518;BME280;5307;42.548;22.968;2023-06-22T11:03:08;94218.97;;;29.94;48.68
10518;BME280;5307;42.548;22.968;2023-06-22T11:05:37;94220.09;;;30.14;48.66
10518;BME280;5307;42.548;22.968;2023-06-22T11:08:04;94220.66;;;29.97;47.02
10518;BME280;5307;42.548;22.968;2023-06-22T11:10:30;94225.19;;;30.00;48.49
10518;BME280;5307;42.548;22.968;2023-06-22T11:12:57;94212.41;;;30.14;47.04
10518;BME280;5307;42.548;22.968;2023-06-22T11:15:24;94215.97;;;30.07;46.93
10518;BME280;5307;42.548;22.968;2023-06-22T11:17:51;94213.19;;;29.77;47.01
10518;BME280;5307;42.548;22.968;2023-06-22T11:20:18;94216.03;;;29.62;45.11
10518;BME280;5307;42.548;22.968;2023-06-22T11:22:46;94220.16;;;29.38;44.80
10518;BME280;5307;42.548;22.968;2023-06-22T11:25:13;94215.25;;;29.38;44.61
10518;BME280;5307;42.548;22.968;2023-06-22T11:27:40;94202.53;;;29.30;44.62
10518;BME280;5307;42.548;22.968;2023-06-22T11:30:08;94207.59;;;29.54;45.89
10518;BME280;5307;42.548;22.968;2023-06-22T11:32:35;94197.47;;;29.43;45.65
10518;BME280;5307;42.548;22.968;2023-06-22T11:35:02;94195.38;;;29.21;46.53
10518;BME280;5307;42.548;22.968;2023-06-22T11:37:29;94192.03;;;29.15;46.56
10518;BME280;5307;42.548;22.968;2023-06-22T11:39:57;94189.16;;;29.00;45.54
10518;BME280;5307;42.548;22.968;2023-06-22T11:42:24;94192.75;;;28.92;45.93
10518;BME280;5307;42.548;22.968;2023-06-22T11:44:51;94192.19;;;29.24;46.99
10518;BME280;5307;42.548;22.968;2023-06-22T11:47:18;94193.88;;;29.66;47.19
10518;BME280;5307;42.548;22.968;2023-06-22T11:49:45;94188.63;;;29.62;47.09
10518;BME280;5307;42.548;22.968;2023-06-22T11:52:12;94194.06;;;29.75;47.49
10518;BME280;5307;42.548;22.968;2023-06-22T11:54:39;94196.53;;;29.48;46.73
10518;BME280;5307;42.548;22.968;2023-06-22T11:57:07;94183.38;;;29.59;46.00
10518;BME280;5307;42.548;22.968;2023-06-22T11:59:34;94186.91;;;29.82;48.37
10518;BME280;5307;42.548;22.968;2023-06-22T12:02:01;94186.38;;;29.61;46.74
10518;BME280;5307;42.548;22.968;2023-06-22T12:04:29;94188.44;;;29.52;43.32
10518;BME280;5307;42.548;22.968;2023-06-22T12:06:56;94177.00;;;29.50;45.26
10518;BME280;5307;42.548;22.968;2023-06-22T12:09:24;94167.59;;;29.55;43.47
10518;BME280;5307;42.548;22.968;2023-06-22T12:11:50;94168.19;;;29.46;45.44
10518;BME280;5307;42.548;22.968;2023-06-22T12:14:19;94169.50;;;29.45;44.40
10518;BME280;5307;42.548;22.968;2023-06-22T12:16:46;94160.88;;;29.28;44.62
10518;BME280;5307;42.548;22.968;2023-06-22T12:19:12;94170.22;;;29.76;47.54
10518;BME280;5307;42.548;22.968;2023-06-22T12:21:39;94174.00;;;29.71;48.33
10518;BME280;5307;42.548;22.968;2023-06-22T12:24:26;94176.63;;;29.54;44.01
10518;BME280;5307;42.548;22.968;2023-06-22T12:26:53;94169.88;;;29.34;43.49
10518;BME280;5307;42.548;22.968;2023-06-22T12:29:21;94181.88;;;29.35;44.17
10518;BME280;5307;42.548;22.968;2023-06-22T12:31:48;94175.88;;;29.38;43.16
10518;BME280;5307;42.548;22.968;2023-06-22T12:34:15;94177.00;;;29.27;44.23
10518;BME280;5307;42.548;22.968;2023-06-22T12:36:42;94171.19;;;29.25;45.23
10518;BME280;5307;42.548;22.968;2023-06-22T12:39:08;94176.81;;;29.33;44.05
10518;BME280;5307;42.548;22.968;2023-06-22T12:41:35;94160.88;;;29.28;45.73
10518;BME280;5307;42.548;22.968;2023-06-22T12:44:02;94158.06;;;29.20;43.70
10518;BME280;5307;42.548;22.968;2023-06-22T12:46:31;94156.38;;;29.25;44.35
10518;BME280;5307;42.548;22.968;2023-06-22T12:49:03;94160.50;;;29.24;43.99
10518;BME280;5307;42.548;22.968;2023-06-22T12:51:30;94169.88;;;29.19;43.58
10518;BME280;5307;42.548;22.968;2023-06-22T12:53:59;94164.25;;;29.19;44.66
10518;BME280;5307;42.548;22.968;2023-06-22T12:56:26;94160.88;;;28.97;44.20
10518;BME280;5307;42.548;22.968;2023-06-22T12:58:53;94165.19;;;28.91;46.61
10518;BME280;5307;42.548;22.968;2023-06-22T13:01:19;94176.34;;;28.09;50.12
10518;BME280;5307;42.548;22.968;2023-06-22T13:03:49;94167.97;;;27.52;51.89
10518;BME280;5307;42.548;22.968;2023-06-22T13:06:15;94171.31;;;27.50;52.44
10518;BME280;5307;42.548;22.968;2023-06-22T13:08:42;94174.69;;;27.77;50.66
10518;BME280;5307;42.548;22.968;2023-06-22T13:11:09;94161.13;;;27.97;50.48
10518;BME280;5307;42.548;22.968;2023-06-22T13:13:36;94158.50;;;28.43;51.12
10518;BME280;5307;42.548;22.968;2023-06-22T13:16:03;94167.66;;;28.35;51.60
10518;BME280;5307;42.548;22.968;2023-06-22T13:18:30;94175.31;;;28.27;50.92